createdAt,value
2022-12-01T00:02:01.275Z,6.10
2022-12-01T00:04:32.301Z,6.10
2022-12-01T00:07:01.774Z,6.10
2022-12-01T00:09:49.763Z,6.10
2022-12-01T00:12:20.338Z,6.20
2022-12-01T00:14:55.673Z,6.10
2022-12-01T00:17:29.889Z,6.10
2022-12-01T00:20:01.430Z,6.20
2022-12-01T00:22:32.292Z,6.20
2022-12-01T00:25:01.816Z,6.30
2022-12-01T00:27:32.493Z,6.40
2022-12-01T00:30:02.216Z,6.30
2022-12-01T00:32:33.137Z,6.20
2022-12-01T00:35:02.930Z,6.20
2022-12-01T00:37:35.766Z,6.10
2022-12-01T00:40:09.125Z,6.10
2022-12-01T00:42:38.417Z,6.10
2022-12-01T00:45:07.423Z,6.10
2022-12-01T00:47:35.051Z,6.10
2022-12-01T00:50:04.016Z,6.10
2022-12-01T00:52:31.531Z,6.30
2022-12-01T00:54:59.134Z,6.20
2022-12-01T00:57:26.708Z,6.20
2022-12-01T00:59:54.265Z,6.30
2022-12-01T01:02:22.499Z,6.20
2022-12-01T01:04:50.104Z,6.20
2022-12-01T01:07:17.953Z,6.20
2022-12-01T01:09:45.563Z,6.30
2022-12-01T01:12:13.290Z,6.30
2022-12-01T01:14:40.859Z,6.20
2022-12-01T01:17:08.568Z,6.30
2022-12-01T01:19:36.195Z,6.30
2022-12-01T01:22:04.388Z,6.40
2022-12-01T01:24:31.976Z,6.40
2022-12-01T01:26:59.878Z,6.30
2022-12-01T01:29:27.461Z,6.40
2022-12-01T01:31:55.130Z,6.30
2022-12-01T01:34:22.729Z,6.20
2022-12-01T01:36:50.597Z,6.20
2022-12-01T01:39:21.408Z,6.20
2022-12-01T01:41:49.102Z,6.40
2022-12-01T01:44:59.385Z,6.20
2022-12-01T01:47:40.825Z,6.20
2022-12-01T01:50:16.253Z,6.20
2022-12-01T01:52:59.334Z,6.20
2022-12-01T01:55:30.282Z,6.20
2022-12-01T01:57:58.489Z,6.10
2022-12-01T02:00:26.398Z,6.10
2022-12-01T02:02:57.536Z,6.10
2022-12-01T02:05:35.310Z,6.10
2022-12-01T02:08:06.499Z,6.30
2022-12-01T02:11:48.933Z,6.30
2022-12-01T02:15:03.398Z,6.50
2022-12-01T02:18:26.692Z,6.30
2022-12-01T02:21:54.472Z,6.20
2022-12-01T02:25:20.708Z,6.10
2022-12-01T02:28:35.120Z,6.20
2022-12-01T02:31:42.003Z,6.20
2022-12-01T02:34:44.945Z,6.10
2022-12-01T02:37:56.971Z,6.10
2022-12-01T02:41:10.421Z,6.40
2022-12-01T02:44:14.234Z,6.40
2022-12-01T02:47:05.299Z,6.30
2022-12-01T02:49:47.715Z,6.20
2022-12-01T02:52:18.946Z,6.10
2022-12-01T02:54:51.167Z,6.20
2022-12-01T02:57:24.359Z,6.20
2022-12-01T02:59:56.330Z,6.20
2022-12-01T03:03:21.715Z,6.10
2022-12-01T03:06:24.124Z,6.10
2022-12-01T03:09:41.587Z,6.20
2022-12-01T03:12:23.627Z,6.30
2022-12-01T03:15:15.315Z,6.40
2022-12-01T03:18:20.515Z,6.40
2022-12-01T03:21:10.461Z,6.20
2022-12-01T03:23:56.487Z,6.10
2022-12-01T03:26:30.401Z,6.00
2022-12-01T03:29:11.226Z,6.00
2022-12-01T03:32:03.443Z,6.00
2022-12-01T03:34:51.574Z,6.10
2022-12-01T03:37:53.376Z,6.10
2022-12-01T03:40:28.659Z,6.10
2022-12-01T03:43:10.544Z,6.10
2022-12-01T03:46:29.520Z,6.20
2022-12-01T03:48:57.543Z,6.10
2022-12-01T03:51:59.150Z,6.30
2022-12-01T03:55:07.984Z,6.30
2022-12-01T03:58:09.484Z,6.20
2022-12-01T04:00:38.424Z,6.30
2022-12-01T04:03:07.190Z,6.20
2022-12-01T04:05:36.186Z,6.10
2022-12-01T04:08:04.474Z,6.10
2022-12-01T04:10:33.171Z,6.00
2022-12-01T04:13:01.024Z,6.10
2022-12-01T04:15:29.055Z,6.10
2022-12-01T04:17:56.715Z,6.10
2022-12-01T04:20:24.350Z,6.10
2022-12-01T04:22:53.013Z,6.20
2022-12-01T04:25:20.857Z,6.10
2022-12-01T04:27:49.001Z,6.10
2022-12-01T04:30:17.512Z,6.20
2022-12-01T04:32:45.794Z,6.40
2022-12-01T04:35:13.821Z,6.30
2022-12-01T04:37:42.003Z,6.30
2022-12-01T04:40:11.105Z,6.30
2022-12-01T04:42:38.669Z,6.20
2022-12-01T04:45:07.365Z,6.20
2022-12-01T04:47:34.977Z,6.20
2022-12-01T04:50:02.546Z,6.20
2022-12-01T04:52:35.054Z,6.20
2022-12-01T04:55:05.462Z,6.20
2022-12-01T04:57:35.432Z,6.20
2022-12-01T05:00:13.063Z,6.20
2022-12-01T05:02:47.521Z,6.40
2022-12-01T05:05:15.454Z,6.30
2022-12-01T05:07:43.153Z,6.30
2022-12-01T05:10:14.236Z,6.20
2022-12-01T05:12:41.904Z,6.20
2022-12-01T05:15:10.294Z,6.30
2022-12-01T05:17:38.264Z,6.30
2022-12-01T05:20:37.891Z,6.20
2022-12-01T05:23:07.138Z,6.30
2022-12-01T05:25:37.529Z,6.20
2022-12-01T05:28:06.646Z,6.20
2022-12-01T05:30:34.348Z,6.20
2022-12-01T05:33:02.036Z,6.20
2022-12-01T05:35:29.690Z,6.20
2022-12-01T05:37:57.273Z,6.20
2022-12-01T05:40:24.876Z,6.20
2022-12-01T05:42:53.004Z,6.20
2022-12-01T05:45:20.573Z,6.20
2022-12-01T05:47:48.168Z,6.10
2022-12-01T05:50:16.673Z,6.00
2022-12-01T05:52:44.266Z,6.00
2022-12-01T05:55:11.977Z,6.00
2022-12-01T05:57:40.224Z,6.20
2022-12-01T06:00:10.101Z,6.10
2022-12-01T06:02:42.021Z,6.10
2022-12-01T06:05:12.388Z,6.20
2022-12-01T06:07:41.280Z,6.20
2022-12-01T06:10:11.218Z,6.10
2022-12-01T06:12:39.398Z,6.20
2022-12-01T06:15:10.454Z,6.10
2022-12-01T06:17:40.563Z,6.00
2022-12-01T06:20:11.480Z,6.00
2022-12-01T06:22:39.265Z,6.00
2022-12-01T06:25:08.425Z,6.00
2022-12-01T06:27:36.918Z,6.00
2022-12-01T06:30:07.089Z,6.10
2022-12-01T06:32:34.986Z,6.20
2022-12-01T06:35:03.356Z,6.20
2022-12-01T06:37:31.055Z,6.30
2022-12-01T06:39:58.646Z,6.20
2022-12-01T06:42:32.284Z,6.10
2022-12-01T06:44:59.920Z,6.10
2022-12-01T06:47:28.194Z,6.10
2022-12-01T06:49:55.767Z,6.10
2022-12-01T06:52:23.989Z,6.10
2022-12-01T06:54:51.556Z,6.10
2022-12-01T06:57:19.950Z,6.10
2022-12-01T06:59:48.284Z,6.20
2022-12-01T07:02:17.071Z,6.20
2022-12-01T07:04:44.723Z,6.30
2022-12-01T07:07:13.031Z,6.20
2022-12-01T07:09:40.867Z,6.20
2022-12-01T07:12:08.465Z,6.10
2022-12-01T07:14:36.798Z,6.10
2022-12-01T07:17:04.595Z,6.00
2022-12-01T07:19:32.258Z,6.00
2022-12-01T07:21:59.792Z,6.00
2022-12-01T07:24:27.470Z,6.10
2022-12-01T07:26:55.005Z,6.20
2022-12-01T07:29:22.647Z,6.20
2022-12-01T07:31:50.175Z,6.20
2022-12-01T07:34:17.871Z,6.20
2022-12-01T07:36:45.408Z,6.30
2022-12-01T07:39:12.981Z,6.30
2022-12-01T07:41:40.568Z,6.20
2022-12-01T07:44:11.162Z,6.50
2022-12-01T07:46:39.140Z,6.40
2022-12-01T07:49:10.566Z,6.30
2022-12-01T07:51:38.183Z,6.40
2022-12-01T07:54:06.960Z,6.20
2022-12-01T07:56:35.674Z,6.20
2022-12-01T07:59:03.344Z,6.20
2022-12-01T08:01:30.992Z,6.10
2022-12-01T08:04:00.485Z,6.20
2022-12-01T08:06:28.152Z,6.20
2022-12-01T08:08:56.452Z,6.20
2022-12-01T08:11:29.980Z,6.20
2022-12-01T08:13:58.055Z,6.20
2022-12-01T08:16:26.540Z,6.20
2022-12-01T08:18:54.949Z,6.20
2022-12-01T08:21:24.550Z,6.30
2022-12-01T08:23:58.531Z,6.20
2022-12-01T08:26:27.779Z,6.20
2022-12-01T08:28:55.712Z,6.30
2022-12-01T08:31:35.917Z,6.30
2022-12-01T08:34:07.212Z,6.30
2022-12-01T08:36:36.354Z,6.30
2022-12-01T08:39:04.870Z,6.50
2022-12-01T08:41:32.628Z,6.40
2022-12-01T08:44:01.359Z,6.30
2022-12-01T08:46:36.087Z,6.30
2022-12-01T08:49:06.790Z,6.20
2022-12-01T08:51:35.972Z,6.30
2022-12-01T08:54:04.868Z,6.40
2022-12-01T08:56:40.404Z,6.50
2022-12-01T08:59:09.292Z,6.50
2022-12-01T09:01:52.529Z,6.60
2022-12-01T09:04:33.371Z,6.50
2022-12-01T09:07:26.798Z,6.50
2022-12-01T09:09:58.055Z,6.50
2022-12-01T09:12:25.735Z,6.50
2022-12-01T09:14:53.331Z,6.50
2022-12-01T09:17:21.118Z,6.60
2022-12-01T09:19:48.921Z,6.50
2022-12-01T09:22:17.006Z,6.40
2022-12-01T09:24:44.666Z,6.40
2022-12-01T09:27:13.258Z,6.40
2022-12-01T09:29:40.850Z,6.50
2022-12-01T09:32:08.541Z,6.60
2022-12-01T09:34:36.116Z,6.40
2022-12-01T09:37:03.703Z,6.40
2022-12-01T09:39:31.447Z,6.30
2022-12-01T09:42:16.560Z,6.30
2022-12-01T09:44:57.273Z,6.30
2022-12-01T09:47:37.187Z,6.30
2022-12-01T09:50:24.263Z,6.20
2022-12-01T09:53:03.424Z,6.20
2022-12-01T09:55:35.205Z,6.20
2022-12-01T09:58:13.935Z,6.10
2022-12-01T10:00:51.785Z,6.00
2022-12-01T10:03:49.497Z,5.90
2022-12-01T10:06:50.046Z,6.00
2022-12-01T10:09:55.500Z,6.10
2022-12-01T10:12:31.344Z,6.20
2022-12-01T10:16:15.665Z,6.30
2022-12-01T10:19:26.258Z,6.30
2022-12-01T10:22:36.181Z,6.30
2022-12-01T10:25:45.261Z,6.20
2022-12-01T10:28:51.963Z,6.10
2022-12-01T10:31:55.371Z,6.10
2022-12-01T10:34:37.505Z,6.10
2022-12-01T10:37:15.911Z,6.20
2022-12-01T10:39:50.180Z,6.30
2022-12-01T10:42:42.674Z,6.20
2022-12-01T10:45:28.166Z,6.20
2022-12-01T10:48:22.306Z,6.20
2022-12-01T10:51:03.698Z,6.10
2022-12-01T10:53:35.691Z,6.10
2022-12-01T10:56:22.149Z,6.20
2022-12-01T10:59:05.305Z,6.20
2022-12-01T11:01:36.373Z,6.20
2022-12-01T11:04:51.377Z,6.30
2022-12-01T11:07:45.521Z,6.30
2022-12-01T11:10:30.708Z,6.40
2022-12-01T11:13:28.457Z,6.50
2022-12-01T11:16:00.822Z,6.40
2022-12-01T11:18:36.417Z,6.50
2022-12-01T11:21:28.633Z,6.50
2022-12-01T11:23:57.176Z,6.40
2022-12-01T11:26:34.732Z,6.50
2022-12-01T11:29:36.269Z,6.50
2022-12-01T11:32:40.140Z,6.50
2022-12-01T11:35:13.743Z,6.60
2022-12-01T11:38:27.689Z,6.60
2022-12-01T11:40:57.092Z,6.60
2022-12-01T11:43:42.607Z,6.50
2022-12-01T11:46:14.475Z,6.50
2022-12-01T11:48:57.209Z,6.60
2022-12-01T11:51:37.291Z,6.50
2022-12-01T11:54:25.873Z,6.60
2022-12-01T11:57:25.400Z,6.70
2022-12-01T11:59:43.136Z,6.90
2022-12-01T12:02:53.606Z,7.00
2022-12-01T12:06:45.091Z,6.90
2022-12-01T12:09:43.390Z,6.80
2022-12-01T12:12:58.564Z,6.90
2022-12-01T12:16:33.702Z,6.80
2022-12-01T12:20:07.073Z,6.90
2022-12-01T12:23:12.175Z,6.80
2022-12-01T12:26:20.331Z,6.80
2022-12-01T12:29:51.341Z,6.80
2022-12-01T12:33:07.947Z,6.90
2022-12-01T12:36:28.509Z,7.00
2022-12-01T12:39:48.793Z,7.00
2022-12-01T12:43:07.684Z,6.90
2022-12-01T12:46:32.896Z,6.90
2022-12-01T12:50:10.539Z,7.10
2022-12-01T12:52:51.712Z,6.90
2022-12-01T12:55:44.640Z,6.90
2022-12-01T12:58:40.046Z,7.00
2022-12-01T13:01:45.429Z,7.10
2022-12-01T13:04:54.083Z,7.00
2022-12-01T13:07:42.412Z,7.00
2022-12-01T13:10:44.615Z,7.00
2022-12-01T13:13:54.701Z,7.00
2022-12-01T13:16:38.073Z,6.90
2022-12-01T13:19:26.288Z,7.00
2022-12-01T13:21:56.355Z,7.00
2022-12-01T13:24:31.797Z,6.90
2022-12-01T13:27:25.940Z,7.00
2022-12-01T13:29:57.027Z,6.90
2022-12-01T13:32:46.314Z,6.70
2022-12-01T13:35:39.108Z,6.60
2022-12-01T13:38:33.728Z,6.80
2022-12-01T13:42:11.931Z,6.90
2022-12-01T13:44:46.150Z,6.90
2022-12-01T13:47:13.708Z,6.70
2022-12-01T13:49:53.442Z,6.60
2022-12-01T13:52:26.862Z,6.60
2022-12-01T13:55:09.631Z,6.80
2022-12-01T13:57:56.894Z,6.70
2022-12-01T14:00:35.111Z,6.80
2022-12-01T14:03:15.898Z,6.70
2022-12-01T14:06:08.131Z,6.80
2022-12-01T14:09:06.609Z,6.80
2022-12-01T14:11:35.904Z,6.70
2022-12-01T14:14:26.373Z,6.60
2022-12-01T14:17:00.979Z,6.60
2022-12-01T14:19:52.918Z,6.60
2022-12-01T14:22:45.763Z,6.60
2022-12-01T14:25:30.974Z,6.50
2022-12-01T14:28:12.297Z,6.60
2022-12-01T14:30:46.012Z,6.60
2022-12-01T14:34:19.235Z,6.60
2022-12-01T14:37:02.760Z,6.70
2022-12-01T14:39:39.225Z,6.70
2022-12-01T14:43:02.038Z,6.70
2022-12-01T14:46:10.155Z,6.60
2022-12-01T14:48:47.930Z,6.70
2022-12-01T14:51:33.972Z,6.60
2022-12-01T14:54:18.794Z,6.60
2022-12-01T14:57:07.475Z,6.60
2022-12-01T14:59:37.475Z,6.40
2022-12-01T15:02:12.320Z,6.40
2022-12-01T15:05:18.801Z,6.30
2022-12-01T15:08:18.642Z,6.30
2022-12-01T15:11:10.669Z,6.20
2022-12-01T15:13:55.760Z,6.20
2022-12-01T15:16:30.892Z,6.20
2022-12-01T15:18:59.090Z,6.10
2022-12-01T15:21:32.512Z,6.20
2022-12-01T15:24:28.667Z,6.20
2022-12-01T15:27:03.794Z,6.20
2022-12-01T15:29:47.014Z,6.10
2022-12-01T15:32:19.891Z,6.10
2022-12-01T15:34:54.543Z,6.30
2022-12-01T15:37:28.671Z,6.30
2022-12-01T15:43:40.035Z,6.20
2022-12-01T15:46:28.432Z,6.20
2022-12-01T15:49:29.908Z,6.10
2022-12-01T15:52:12.735Z,6.10
2022-12-01T15:54:40.666Z,6.10
2022-12-01T15:57:09.117Z,6.10
2022-12-01T15:59:51.569Z,6.10
2022-12-01T16:02:32.676Z,6.00
2022-12-01T16:05:35.999Z,6.00
2022-12-01T16:08:28.014Z,6.10
2022-12-01T16:11:21.626Z,6.00
2022-12-01T16:14:26.049Z,6.00
2022-12-01T16:16:54.317Z,5.90
2022-12-01T16:19:36.005Z,6.00
2022-12-01T16:22:18.879Z,5.90
2022-12-01T16:24:55.364Z,6.00
2022-12-01T16:27:31.682Z,5.90
2022-12-01T16:30:21.240Z,6.00
2022-12-01T16:32:50.362Z,6.00
2022-12-01T16:35:31.486Z,5.80
2022-12-01T16:38:22.062Z,5.70
2022-12-01T16:40:56.174Z,5.70
2022-12-01T16:43:28.748Z,5.70
2022-12-01T16:46:11.629Z,5.70
2022-12-01T16:48:39.550Z,5.60
2022-12-01T16:51:08.354Z,5.60
2022-12-01T16:53:35.969Z,5.80
2022-12-01T16:56:03.871Z,5.80
2022-12-01T16:58:32.158Z,5.80
2022-12-01T17:00:59.971Z,6.00
2022-12-01T17:03:29.176Z,5.80
2022-12-01T17:06:01.982Z,5.80
2022-12-01T17:08:29.947Z,6.00
2022-12-01T17:10:57.528Z,5.90
2022-12-01T17:13:25.190Z,5.80
2022-12-01T17:15:56.023Z,5.80
2022-12-01T17:18:24.867Z,6.00
2022-12-01T17:21:09.917Z,5.80
2022-12-01T17:23:39.929Z,5.70
2022-12-01T17:26:19.333Z,5.70
2022-12-01T17:28:48.174Z,5.70
2022-12-01T17:31:16.338Z,5.60
2022-12-01T17:33:44.216Z,5.60
2022-12-01T17:36:15.271Z,5.50
2022-12-01T17:38:47.032Z,5.60
2022-12-01T17:41:25.507Z,5.50
2022-12-01T17:43:53.164Z,5.70
2022-12-01T17:46:20.829Z,5.80
2022-12-01T17:48:48.825Z,5.70
2022-12-01T17:51:16.902Z,5.70
2022-12-01T17:53:44.845Z,5.60
2022-12-01T17:56:24.563Z,5.50
2022-12-01T17:58:52.838Z,5.60
2022-12-01T18:01:26.895Z,5.60
2022-12-01T18:03:59.142Z,5.60
2022-12-01T18:06:27.584Z,5.60
2022-12-01T18:08:57.532Z,5.60
2022-12-01T18:11:25.404Z,5.60
2022-12-01T18:13:53.670Z,5.50
2022-12-01T18:16:29.350Z,5.60
2022-12-01T18:19:01.518Z,5.50
2022-12-01T18:21:30.669Z,5.40
2022-12-01T18:24:04.198Z,5.50
2022-12-01T18:26:35.834Z,5.50
2022-12-01T18:29:11.331Z,5.50
2022-12-01T18:31:41.100Z,5.40
2022-12-01T18:34:12.493Z,5.40
2022-12-01T18:36:42.116Z,5.40
2022-12-01T18:39:12.041Z,5.40
2022-12-01T18:41:40.482Z,5.40
2022-12-01T18:44:08.924Z,5.30
2022-12-01T18:46:37.291Z,5.20
2022-12-01T18:49:06.787Z,5.30
2022-12-01T18:51:38.593Z,5.20
2022-12-01T18:54:12.741Z,5.20
2022-12-01T18:56:40.635Z,5.30
2022-12-01T18:59:13.740Z,5.40
2022-12-01T19:01:45.816Z,5.40
2022-12-01T19:04:16.773Z,5.30
2022-12-01T19:06:47.483Z,5.30
2022-12-01T19:09:17.582Z,5.20
2022-12-01T19:11:46.217Z,5.30
2022-12-01T19:14:19.763Z,5.30
2022-12-01T19:16:48.272Z,5.20
2022-12-01T19:19:16.161Z,5.20
2022-12-01T19:21:45.432Z,5.20
2022-12-01T19:24:13.682Z,5.00
2022-12-01T19:26:43.204Z,5.10
2022-12-01T19:29:11.800Z,5.20
2022-12-01T19:31:39.894Z,5.20
2022-12-01T19:34:08.097Z,5.10
2022-12-01T19:36:35.743Z,5.10
2022-12-01T19:39:07.704Z,5.10
2022-12-01T19:41:38.582Z,5.00
2022-12-01T19:44:06.490Z,4.90
2022-12-01T19:46:34.359Z,4.90
2022-12-01T19:49:03.019Z,5.00
2022-12-01T19:51:38.216Z,4.90
2022-12-01T19:54:18.143Z,4.80
2022-12-01T19:56:47.405Z,4.80
2022-12-01T19:59:15.902Z,4.90
2022-12-01T20:01:45.371Z,5.00
2022-12-01T20:04:14.069Z,5.00
2022-12-01T20:06:41.868Z,5.10
2022-12-01T20:09:09.812Z,4.90
2022-12-01T20:11:37.629Z,5.00
2022-12-01T20:14:09.872Z,5.00
2022-12-01T20:16:38.538Z,4.90
2022-12-01T20:19:09.041Z,5.00
2022-12-01T20:21:43.217Z,4.90
2022-12-01T20:24:20.016Z,4.90
2022-12-01T20:26:54.183Z,4.90
2022-12-01T20:29:29.484Z,4.90
2022-12-01T20:32:03.031Z,4.90
2022-12-01T20:34:36.189Z,4.90
2022-12-01T20:37:05.152Z,4.90
2022-12-01T20:39:35.248Z,4.90
2022-12-01T20:42:03.144Z,4.90
2022-12-01T20:44:31.114Z,4.90
2022-12-01T20:46:58.777Z,4.90
2022-12-01T20:49:36.227Z,5.00
2022-12-01T20:52:05.596Z,4.90
2022-12-01T20:54:37.309Z,4.80
2022-12-01T20:57:05.941Z,4.80
2022-12-01T20:59:35.888Z,4.90
2022-12-01T21:02:04.215Z,4.80
2022-12-01T21:04:31.904Z,4.80
2022-12-01T21:07:00.579Z,4.90
2022-12-01T21:09:28.404Z,4.80
2022-12-01T21:12:20.844Z,4.70
2022-12-01T21:15:28.126Z,4.70
2022-12-01T21:18:20.832Z,4.70
2022-12-01T21:21:01.679Z,4.90
2022-12-01T21:23:30.352Z,4.80
2022-12-01T21:25:58.741Z,4.80
2022-12-01T21:28:27.756Z,4.80
2022-12-01T21:31:16.084Z,4.70
2022-12-01T21:33:44.518Z,4.70
2022-12-01T21:36:28.834Z,4.80
2022-12-01T21:39:16.612Z,4.80
2022-12-01T21:41:44.748Z,4.70
2022-12-01T21:44:32.327Z,4.80
2022-12-01T21:47:23.025Z,4.70
2022-12-01T21:49:58.523Z,4.60
2022-12-01T21:52:40.522Z,4.60
2022-12-01T21:55:17.093Z,4.70
2022-12-01T21:57:51.280Z,4.60
2022-12-01T22:00:36.938Z,4.60
2022-12-01T22:03:40.304Z,4.60
2022-12-01T22:07:00.604Z,4.50
2022-12-01T22:09:37.033Z,4.50
2022-12-01T22:12:29.054Z,4.50
2022-12-01T22:15:32.962Z,4.50
2022-12-01T22:18:01.329Z,4.50
2022-12-01T22:20:29.701Z,4.30
2022-12-01T22:22:58.284Z,4.30
2022-12-01T22:25:28.489Z,4.20
2022-12-01T22:28:00.093Z,4.30
2022-12-01T22:30:27.907Z,4.30
2022-12-01T22:33:10.532Z,4.30
2022-12-01T22:35:49.235Z,4.20
2022-12-01T22:38:38.773Z,4.30
2022-12-01T22:41:21.427Z,4.40
2022-12-01T22:43:56.984Z,4.30
2022-12-01T22:46:35.351Z,4.20
2022-12-01T22:49:22.632Z,4.20
2022-12-01T22:52:22.626Z,4.10
2022-12-01T22:54:51.108Z,4.30
2022-12-01T22:57:35.152Z,4.30
2022-12-01T23:00:23.974Z,4.20
2022-12-01T23:02:56.470Z,4.10
2022-12-01T23:05:30.805Z,4.20
2022-12-01T23:07:58.848Z,4.20
2022-12-01T23:10:34.892Z,4.10
2022-12-01T23:13:23.954Z,4.00
2022-12-01T23:15:54.291Z,4.00
2022-12-01T23:18:32.122Z,4.20
2022-12-01T23:21:02.275Z,4.30
2022-12-01T23:23:37.723Z,4.20
2022-12-01T23:26:09.328Z,4.20
2022-12-01T23:28:41.402Z,4.10
2022-12-01T23:31:10.615Z,4.10
2022-12-01T23:33:38.543Z,4.10
2022-12-01T23:36:29.743Z,4.10
2022-12-01T23:39:10.414Z,4.00
2022-12-01T23:41:47.707Z,3.90
2022-12-01T23:44:42.127Z,3.90
2022-12-01T23:47:26.851Z,3.80
2022-12-01T23:50:18.752Z,3.70
2022-12-01T23:52:47.306Z,3.60
2022-12-01T23:55:30.712Z,3.60
2022-12-01T23:58:01.900Z,3.70
